sensor_id;sensor_type;location;lat;lon;timestamp;pressure;altitude;pressure_sealevel;temperature;humidity
16120;BME280;12670;53.502;10.252;2023-03-11T00:02:38;99443.69;;;1.68;100.00
16120;BME280;12670;53.502;10.252;2023-03-11T00:05:42;99453.69;;;1.84;100.00
16120;BME280;12670;53.502;10.252;2023-03-11T00:08:46;99462.41;;;1.85;100.00
16120;BME280;12670;53.502;10.252;2023-03-11T00:11:49;99464.38;;;1.77;100.00
16120;BME280;12670;53.502;10.252;2023-03-11T00:14:52;99468.31;;;1.92;100.00
16120;BME280;12670;53.502;10.252;2023-03-11T00:17:55;99473.38;;;1.98;100.00
16120;BME280;12670;53.502;10.252;2023-03-11T00:20:58;99488.28;;;1.96;100.00
16120;BME280;12670;53.502;10.252;2023-03-11T00:24:03;99491.06;;;1.90;100.00
16120;BME280;12670;53.502;10.252;2023-03-11T00:27:06;99506.59;;;1.96;100.00
16120;BME280;12670;53.502;10.252;2023-03-11T00:30:10;99513.16;;;1.78;100.00
16120;BME280;12670;53.502;10.252;2023-03-11T00:33:14;99513.63;;;1.94;100.00
16120;BME280;12670;53.502;10.252;2023-03-11T00:36:21;99517.66;;;2.05;100.00
16120;BME280;12670;53.502;10.252;2023-03-11T00:39:25;99534.59;;;1.91;100.00
16120;BME280;12670;53.502;10.252;2023-03-11T00:42:28;99530.16;;;1.94;100.00
16120;BME280;12670;53.502;10.252;2023-03-11T00:45:31;99545.75;;;1.63;100.00
16120;BME280;12670;53.502;10.252;2023-03-11T00:48:34;99548.41;;;1.62;100.00
16120;BME280;12670;53.502;10.252;2023-03-11T00:51:36;99548.66;;;1.86;100.00
16120;BME280;12670;53.502;10.252;2023-03-11T00:54:40;99551.16;;;1.91;100.00
16120;BME280;12670;53.502;10.252;2023-03-11T00:57:43;99557.94;;;2.00;100.00
16120;BME280;12670;53.502;10.252;2023-03-11T01:00:46;99559.81;;;1.93;100.00
16120;BME280;12670;53.502;10.252;2023-03-11T01:03:48;99564.00;;;2.00;100.00
16120;BME280;12670;53.502;10.252;2023-03-11T01:06:51;99573.41;;;1.73;100.00
16120;BME280;12670;53.502;10.252;2023-03-11T01:09:55;99580.72;;;1.93;100.00
16120;BME280;12670;53.502;10.252;2023-03-11T01:12:58;99591.69;;;2.09;100.00
16120;BME280;12670;53.502;10.252;2023-03-11T01:16:00;99595.19;;;2.08;100.00
16120;BME280;12670;53.502;10.252;2023-03-11T01:19:03;99593.47;;;2.07;100.00
16120;BME280;12670;53.502;10.252;2023-03-11T01:22:06;99604.31;;;1.92;100.00
16120;BME280;12670;53.502;10.252;2023-03-11T01:25:13;99598.09;;;1.97;100.00
16120;BME280;12670;53.502;10.252;2023-03-11T01:28:16;99610.41;;;1.94;100.00
16120;BME280;12670;53.502;10.252;2023-03-11T01:31:19;99610.03;;;2.07;100.00
16120;BME280;12670;53.502;10.252;2023-03-11T01:34:21;99616.44;;;1.96;100.00
16120;BME280;12670;53.502;10.252;2023-03-11T01:37:24;99617.34;;;1.95;100.00
16120;BME280;12670;53.502;10.252;2023-03-11T01:40:30;99621.56;;;1.99;100.00
16120;BME280;12670;53.502;10.252;2023-03-11T01:43:49;99637.81;;;2.13;100.00
16120;BME280;12670;53.502;10.252;2023-03-11T01:50:33;99646.31;;;1.85;100.00
16120;BME280;12670;53.502;10.252;2023-03-11T01:53:37;99646.09;;;1.95;100.00
16120;BME280;12670;53.502;10.252;2023-03-11T01:56:42;99658.19;;;1.99;100.00
16120;BME280;12670;53.502;10.252;2023-03-11T01:59:48;99660.00;;;1.97;100.00
16120;BME280;12670;53.502;10.252;2023-03-11T02:02:53;99664.41;;;1.95;100.00
16120;BME280;12670;53.502;10.252;2023-03-11T02:05:59;99666.88;;;2.01;100.00
16120;BME280;12670;53.502;10.252;2023-03-11T02:09:02;99675.03;;;1.87;100.00
16120;BME280;12670;53.502;10.252;2023-03-11T02:12:08;99678.06;;;2.07;100.00
16120;BME280;12670;53.502;10.252;2023-03-11T02:15:12;99678.13;;;2.04;100.00
16120;BME280;12670;53.502;10.252;2023-03-11T02:18:16;99674.03;;;1.94;100.00
16120;BME280;12670;53.502;10.252;2023-03-11T02:21:23;99674.69;;;2.02;100.00
16120;BME280;12670;53.502;10.252;2023-03-11T02:24:30;99679.13;;;1.99;100.00
16120;BME280;12670;53.502;10.252;2023-03-11T02:27:40;99689.66;;;1.96;100.00
16120;BME280;12670;53.502;10.252;2023-03-11T02:30:45;99694.16;;;1.91;100.00
16120;BME280;12670;53.502;10.252;2023-03-11T02:33:52;99704.78;;;1.83;100.00
16120;BME280;12670;53.502;10.252;2023-03-11T02:36:56;99717.16;;;1.75;100.00
16120;BME280;12670;53.502;10.252;2023-03-11T02:40:44;99723.19;;;1.78;100.00
16120;BME280;12670;53.502;10.252;2023-03-11T02:43:51;99731.94;;;1.77;100.00
16120;BME280;12670;53.502;10.252;2023-03-11T02:46:55;99745.06;;;1.74;100.00
16120;BME280;12670;53.502;10.252;2023-03-11T02:49:57;99757.88;;;1.86;100.00
16120;BME280;12670;53.502;10.252;2023-03-11T02:53:00;99762.94;;;1.94;100.00
16120;BME280;12670;53.502;10.252;2023-03-11T02:56:03;99771.66;;;1.95;100.00
16120;BME280;12670;53.502;10.252;2023-03-11T02:59:07;99770.13;;;1.84;100.00
16120;BME280;12670;53.502;10.252;2023-03-11T03:02:10;99778.06;;;1.80;100.00
16120;BME280;12670;53.502;10.252;2023-03-11T03:05:12;99782.31;;;1.85;100.00
16120;BME280;12670;53.502;10.252;2023-03-11T03:08:15;99792.38;;;1.62;100.00
16120;BME280;12670;53.502;10.252;2023-03-11T03:11:18;99794.69;;;1.77;100.00
16120;BME280;12670;53.502;10.252;2023-03-11T03:14:22;99796.28;;;1.84;100.00
16120;BME280;12670;53.502;10.252;2023-03-11T03:17:24;99796.81;;;1.60;100.00
16120;BME280;12670;53.502;10.252;2023-03-11T03:20:27;99792.09;;;1.76;100.00
16120;BME280;12670;53.502;10.252;2023-03-11T03:23:29;99805.06;;;1.80;100.00
16120;BME280;12670;53.502;10.252;2023-03-11T03:26:35;99813.38;;;1.59;100.00
16120;BME280;12670;53.502;10.252;2023-03-11T03:29:39;99822.59;;;1.77;100.00
16120;BME280;12670;53.502;10.252;2023-03-11T03:32:42;99827.91;;;1.72;100.00
16120;BME280;12670;53.502;10.252;2023-03-11T03:35:45;99826.84;;;1.82;100.00
16120;BME280;12670;53.502;10.252;2023-03-11T03:38:51;99834.38;;;1.54;100.00
16120;BME280;12670;53.502;10.252;2023-03-11T03:41:54;99846.34;;;1.66;100.00
16120;BME280;12670;53.502;10.252;2023-03-11T03:44:58;99860.75;;;1.42;100.00
16120;BME280;12670;53.502;10.252;2023-03-11T03:48:01;99868.56;;;1.44;100.00
16120;BME280;12670;53.502;10.252;2023-03-11T03:51:05;99870.94;;;1.56;100.00
16120;BME280;12670;53.502;10.252;2023-03-11T03:54:08;99868.31;;;1.56;100.00
16120;BME280;12670;53.502;10.252;2023-03-11T03:57:10;99871.94;;;1.49;100.00
16120;BME280;12670;53.502;10.252;2023-03-11T04:00:15;99880.41;;;1.62;100.00
16120;BME280;12670;53.502;10.252;2023-03-11T04:03:18;99877.88;;;1.58;100.00
16120;BME280;12670;53.502;10.252;2023-03-11T04:06:22;99882.22;;;1.58;100.00
16120;BME280;12670;53.502;10.252;2023-03-11T04:09:25;99895.34;;;1.55;100.00
16120;BME280;12670;53.502;10.252;2023-03-11T04:12:28;99898.78;;;1.58;100.00
16120;BME280;12670;53.502;10.252;2023-03-11T04:15:32;99898.88;;;1.52;100.00
16120;BME280;12670;53.502;10.252;2023-03-11T04:18:34;99892.66;;;1.59;100.00
16120;BME280;12670;53.502;10.252;2023-03-11T04:21:37;99900.34;;;1.67;100.00
16120;BME280;12670;53.502;10.252;2023-03-11T04:24:40;99900.63;;;1.52;100.00
16120;BME280;12670;53.502;10.252;2023-03-11T04:27:42;99901.41;;;1.57;100.00
16120;BME280;12670;53.502;10.252;2023-03-11T04:30:47;99913.81;;;1.46;100.00
16120;BME280;12670;53.502;10.252;2023-03-11T04:33:50;99913.81;;;1.46;100.00
16120;BME280;12670;53.502;10.252;2023-03-11T04:36:53;99916.34;;;1.50;100.00
16120;BME280;12670;53.502;10.252;2023-03-11T04:39:56;99920.97;;;1.34;100.00
16120;BME280;12670;53.502;10.252;2023-03-11T04:42:59;99913.69;;;1.52;100.00
16120;BME280;12670;53.502;10.252;2023-03-11T04:46:03;99906.47;;;1.66;100.00
16120;BME280;12670;53.502;10.252;2023-03-11T04:49:06;99912.56;;;1.67;100.00
16120;BME280;12670;53.502;10.252;2023-03-11T04:52:08;99917.94;;;1.57;100.00
16120;BME280;12670;53.502;10.252;2023-03-11T04:55:11;99923.06;;;1.65;100.00
16120;BME280;12670;53.502;10.252;2023-03-11T04:58:14;99933.00;;;1.45;100.00
16120;BME280;12670;53.502;10.252;2023-03-11T05:01:18;99922.59;;;1.43;100.00
16120;BME280;12670;53.502;10.252;2023-03-11T05:04:21;99934.75;;;1.44;100.00
16120;BME280;12670;53.502;10.252;2023-03-11T05:07:23;99942.47;;;1.50;100.00
16120;BME280;12670;53.502;10.252;2023-03-11T05:10:26;99952.91;;;1.53;100.00
16120;BME280;12670;53.502;10.252;2023-03-11T05:13:32;99961.63;;;1.51;100.00
16120;BME280;12670;53.502;10.252;2023-03-11T05:16:36;99971.38;;;1.43;100.00
16120;BME280;12670;53.502;10.252;2023-03-11T05:19:38;99979.94;;;1.51;100.00
16120;BME280;12670;53.502;10.252;2023-03-11T05:22:41;99985.03;;;1.60;100.00
16120;BME280;12670;53.502;10.252;2023-03-11T05:25:44;99990.28;;;1.57;100.00
16120;BME280;12670;53.502;10.252;2023-03-11T05:28:46;99989.81;;;1.33;100.00
16120;BME280;12670;53.502;10.252;2023-03-11T05:31:50;99995.81;;;1.39;100.00
16120;BME280;12670;53.502;10.252;2023-03-11T05:34:53;100002.84;;;1.37;100.00
16120;BME280;12670;53.502;10.252;2023-03-11T05:37:56;100004.66;;;1.31;100.00
16120;BME280;12670;53.502;10.252;2023-03-11T05:40:59;100009.91;;;1.28;100.00
16120;BME280;12670;53.502;10.252;2023-03-11T05:44:02;100024.53;;;1.40;100.00
16120;BME280;12670;53.502;10.252;2023-03-11T05:47:06;100030.63;;;1.42;100.00
16120;BME280;12670;53.502;10.252;2023-03-11T05:50:10;100033.63;;;1.18;100.00
16120;BME280;12670;53.502;10.252;2023-03-11T05:53:13;100037.91;;;1.22;100.00
16120;BME280;12670;53.502;10.252;2023-03-11T05:56:18;100050.19;;;1.15;100.00
16120;BME280;12670;53.502;10.252;2023-03-11T05:59:21;100055.28;;;1.23;100.00
16120;BME280;12670;53.502;10.252;2023-03-11T06:02:25;100062.38;;;1.16;100.00
16120;BME280;12670;53.502;10.252;2023-03-11T06:05:28;100058.72;;;1.29;100.00
16120;BME280;12670;53.502;10.252;2023-03-11T06:08:30;100067.59;;;1.16;100.00
16120;BME280;12670;53.502;10.252;2023-03-11T06:11:34;100073.03;;;1.01;100.00
16120;BME280;12670;53.502;10.252;2023-03-11T06:14:37;100076.75;;;0.83;100.00
16120;BME280;12670;53.502;10.252;2023-03-11T06:17:41;100080.22;;;0.85;100.00
16120;BME280;12670;53.502;10.252;2023-03-11T06:20:44;100082.81;;;0.85;100.00
16120;BME280;12670;53.502;10.252;2023-03-11T06:23:47;100084.50;;;0.91;100.00
16120;BME280;12670;53.502;10.252;2023-03-11T06:26:50;100093.81;;;1.10;100.00
16120;BME280;12670;53.502;10.252;2023-03-11T06:29:53;100100.53;;;1.29;100.00
16120;BME280;12670;53.502;10.252;2023-03-11T06:32:57;100101.59;;;1.15;100.00
16120;BME280;12670;53.502;10.252;2023-03-11T06:36:00;100099.28;;;0.92;100.00
16120;BME280;12670;53.502;10.252;2023-03-11T06:39:04;100101.72;;;1.04;100.00
16120;BME280;12670;53.502;10.252;2023-03-11T06:42:08;100113.13;;;0.97;100.00
16120;BME280;12670;53.502;10.252;2023-03-11T06:45:11;100107.72;;;1.12;100.00
16120;BME280;12670;53.502;10.252;2023-03-11T06:48:15;100115.56;;;1.12;100.00
16120;BME280;12670;53.502;10.252;2023-03-11T06:51:19;100129.31;;;1.25;100.00
16120;BME280;12670;53.502;10.252;2023-03-11T06:54:21;100132.00;;;1.20;100.00
16120;BME280;12670;53.502;10.252;2023-03-11T06:57:24;100138.94;;;1.21;100.00
16120;BME280;12670;53.502;10.252;2023-03-11T07:00:27;100143.44;;;1.10;100.00
16120;BME280;12670;53.502;10.252;2023-03-11T07:03:33;100146.69;;;1.27;100.00
16120;BME280;12670;53.502;10.252;2023-03-11T07:06:35;100158.88;;;1.30;100.00
16120;BME280;12670;53.502;10.252;2023-03-11T07:09:38;100164.34;;;1.10;100.00
16120;BME280;12670;53.502;10.252;2023-03-11T07:12:40;100167.59;;;1.27;100.00
16120;BME280;12670;53.502;10.252;2023-03-11T07:15:43;100167.63;;;1.26;100.00
16120;BME280;12670;53.502;10.252;2023-03-11T07:18:49;100172.00;;;1.25;100.00
16120;BME280;12670;53.502;10.252;2023-03-11T07:21:52;100177.47;;;1.04;100.00
16120;BME280;12670;53.502;10.252;2023-03-11T07:24:54;100175.25;;;1.43;100.00
16120;BME280;12670;53.502;10.252;2023-03-11T07:27:57;100184.88;;;1.39;100.00
16120;BME280;12670;53.502;10.252;2023-03-11T07:31:05;100179.84;;;1.22;100.00
16120;BME280;12670;53.502;10.252;2023-03-11T07:34:11;100187.50;;;1.38;100.00
16120;BME280;12670;53.502;10.252;2023-03-11T07:37:14;100197.66;;;1.60;100.00
16120;BME280;12670;53.502;10.252;2023-03-11T07:40:17;100201.88;;;1.71;100.00
16120;BME280;12670;53.502;10.252;2023-03-11T07:43:20;100212.50;;;1.58;100.00
16120;BME280;12670;53.502;10.252;2023-03-11T07:46:23;100213.47;;;1.53;100.00
16120;BME280;12670;53.502;10.252;2023-03-11T07:49:28;100211.69;;;1.52;100.00
16120;BME280;12670;53.502;10.252;2023-03-11T07:52:31;100221.75;;;1.82;100.00
16120;BME280;12670;53.502;10.252;2023-03-11T07:55:34;100238.22;;;1.87;100.00
16120;BME280;12670;53.502;10.252;2023-03-11T07:58:37;100239.19;;;1.80;100.00
16120;BME280;12670;53.502;10.252;2023-03-11T08:01:39;100247.50;;;2.10;100.00
16120;BME280;12670;53.502;10.252;2023-03-11T08:04:48;100243.28;;;2.01;100.00
16120;BME280;12670;53.502;10.252;2023-03-11T08:07:51;100251.31;;;1.87;100.00
16120;BME280;12670;53.502;10.252;2023-03-11T08:10:53;100255.94;;;2.27;100.00
16120;BME280;12670;53.502;10.252;2023-03-11T08:13:56;100271.84;;;2.15;100.00
16120;BME280;12670;53.502;10.252;2023-03-11T08:16:59;100275.97;;;2.31;100.00
16120;BME280;12670;53.502;10.252;2023-03-11T08:20:03;100276.41;;;2.58;100.00
16120;BME280;12670;53.502;10.252;2023-03-11T08:23:09;100281.56;;;2.64;100.00
16120;BME280;12670;53.502;10.252;2023-03-11T08:26:14;100296.34;;;2.66;100.00
16120;BME280;12670;53.502;10.252;2023-03-11T08:29:17;100298.50;;;2.92;99.46
16120;BME280;12670;53.502;10.252;2023-03-11T08:32:19;100304.78;;;2.84;99.95
16120;BME280;12670;53.502;10.252;2023-03-11T08:35:23;100302.25;;;2.79;98.98
16120;BME280;12670;53.502;10.252;2023-03-11T08:38:27;100317.63;;;2.98;98.68
16120;BME280;12670;53.502;10.252;2023-03-11T08:41:30;100313.69;;;3.23;98.57
16120;BME280;12670;53.502;10.252;2023-03-11T08:44:33;100315.94;;;2.95;98.13
16120;BME280;12670;53.502;10.252;2023-03-11T08:47:36;100316.38;;;3.20;98.56
16120;BME280;12670;53.502;10.252;2023-03-11T08:50:41;100329.88;;;3.45;97.35
16120;BME280;12670;53.502;10.252;2023-03-11T08:53:56;100318.53;;;3.44;96.39
16120;BME280;12670;53.502;10.252;2023-03-11T08:56:59;100329.59;;;3.60;97.25
16120;BME280;12670;53.502;10.252;2023-03-11T09:00:05;100337.03;;;3.80;95.64
16120;BME280;12670;53.502;10.252;2023-03-11T09:03:09;100332.59;;;3.84;93.26
16120;BME280;12670;53.502;10.252;2023-03-11T09:06:14;100340.13;;;3.59;93.39
16120;BME280;12670;53.502;10.252;2023-03-11T09:09:17;100337.25;;;3.71;92.10
16120;BME280;12670;53.502;10.252;2023-03-11T09:12:20;100345.50;;;3.94;93.05
16120;BME280;12670;53.502;10.252;2023-03-11T09:15:23;100340.31;;;3.91;90.82
16120;BME280;12670;53.502;10.252;2023-03-11T09:18:26;100345.75;;;3.82;89.48
16120;BME280;12670;53.502;10.252;2023-03-11T09:21:31;100348.13;;;4.35;91.36
16120;BME280;12670;53.502;10.252;2023-03-11T09:24:34;100355.53;;;4.16;89.74
16120;BME280;12670;53.502;10.252;2023-03-11T09:27:37;100352.13;;;4.51;88.90
16120;BME280;12670;53.502;10.252;2023-03-11T09:30:39;100355.31;;;4.65;87.23
16120;BME280;12670;53.502;10.252;2023-03-11T09:33:43;100356.28;;;4.61;86.99
16120;BME280;12670;53.502;10.252;2023-03-11T09:36:47;100363.28;;;4.61;87.24
16120;BME280;12670;53.502;10.252;2023-03-11T09:39:50;100376.59;;;4.90;85.60
16120;BME280;12670;53.502;10.252;2023-03-11T09:42:58;100377.94;;;5.06;84.08
16120;BME280;12670;53.502;10.252;2023-03-11T09:46:21;100372.38;;;5.19;84.36
16120;BME280;12670;53.502;10.252;2023-03-11T09:49:33;100376.34;;;5.01;81.97
16120;BME280;12670;53.502;10.252;2023-03-11T09:52:45;100376.84;;;5.15;82.44
16120;BME280;12670;53.502;10.252;2023-03-11T09:55:52;100386.38;;;5.53;81.23
16120;BME280;12670;53.502;10.252;2023-03-11T09:58:59;100381.44;;;5.74;80.52
16120;BME280;12670;53.502;10.252;2023-03-11T10:02:03;100381.06;;;5.55;79.88
16120;BME280;12670;53.502;10.252;2023-03-11T10:05:11;100387.88;;;5.62;78.91
16120;BME280;12670;53.502;10.252;2023-03-11T10:08:30;100388.59;;;5.69;78.81
16120;BME280;12670;53.502;10.252;2023-03-11T10:11:48;100392.69;;;6.41;78.73
16120;BME280;12670;53.502;10.252;2023-03-11T10:15:06;100393.13;;;6.55;78.61
16120;BME280;12670;53.502;10.252;2023-03-11T10:18:27;100393.25;;;6.80;76.02
16120;BME280;12670;53.502;10.252;2023-03-11T10:21:40;100391.13;;;6.63;70.82
16120;BME280;12670;53.502;10.252;2023-03-11T10:24:56;100395.69;;;6.86;72.50
16120;BME280;12670;53.502;10.252;2023-03-11T10:28:07;100404.56;;;7.37;69.44
16120;BME280;12670;53.502;10.252;2023-03-11T10:31:19;100410.81;;;7.59;70.03
16120;BME280;12670;53.502;10.252;2023-03-11T10:34:25;100402.03;;;7.84;70.27
16120;BME280;12670;53.502;10.252;2023-03-11T10:37:34;100406.47;;;8.07;65.79
16120;BME280;12670;53.502;10.252;2023-03-11T10:40:54;100406.66;;;8.25;63.79
16120;BME280;12670;53.502;10.252;2023-03-11T10:44:02;100406.78;;;8.91;61.03
16120;BME280;12670;53.502;10.252;2023-03-11T10:47:12;100407.50;;;8.95;60.12
16120;BME280;12670;53.502;10.252;2023-03-11T10:50:18;100412.50;;;9.65;61.84
16120;BME280;12670;53.502;10.252;2023-03-11T10:53:21;100405.47;;;10.63;59.80
16120;BME280;12670;53.502;10.252;2023-03-11T10:56:28;100404.63;;;10.99;57.72
16120;BME280;12670;53.502;10.252;2023-03-11T10:59:32;100406.16;;;10.85;55.54
16120;BME280;12670;53.502;10.252;2023-03-11T11:02:38;100413.22;;;10.67;58.83
16120;BME280;12670;53.502;10.252;2023-03-11T11:05:56;100415.34;;;10.78;55.46
16120;BME280;12670;53.502;10.252;2023-03-11T11:09:13;100416.53;;;11.09;60.37
16120;BME280;12670;53.502;10.252;2023-03-11T11:12:19;100418.66;;;11.37;56.18
16120;BME280;12670;53.502;10.252;2023-03-11T11:15:24;100419.31;;;10.32;57.55
16120;BME280;12670;53.502;10.252;2023-03-11T11:18:30;100415.16;;;10.26;62.86
16120;BME280;12670;53.502;10.252;2023-03-11T11:21:36;100418.03;;;11.49;58.39
16120;BME280;12670;53.502;10.252;2023-03-11T11:24:43;100408.34;;;10.19;62.16
16120;BME280;12670;53.502;10.252;2023-03-11T11:27:54;100405.72;;;10.94;59.83
16120;BME280;12670;53.502;10.252;2023-03-11T11:30:58;100417.19;;;11.48;56.30
16120;BME280;12670;53.502;10.252;2023-03-11T11:34:01;100402.66;;;11.21;55.47
16120;BME280;12670;53.502;10.252;2023-03-11T11:37:11;100417.56;;;11.58;53.16
16120;BME280;12670;53.502;10.252;2023-03-11T11:40:27;100417.78;;;12.06;57.66
16120;BME280;12670;53.502;10.252;2023-03-11T11:43:43;100414.91;;;11.41;53.22
16120;BME280;12670;53.502;10.252;2023-03-11T11:46:51;100407.41;;;10.40;57.93
16120;BME280;12670;53.502;10.252;2023-03-11T11:49:59;100401.72;;;10.48;57.01
16120;BME280;12670;53.502;10.252;2023-03-11T11:53:12;100400.19;;;10.44;56.43
16120;BME280;12670;53.502;10.252;2023-03-11T11:56:16;100409.72;;;11.03;55.58
16120;BME280;12670;53.502;10.252;2023-03-11T11:59:21;100401.72;;;11.57;54.53
16120;BME280;12670;53.502;10.252;2023-03-11T12:02:41;100396.28;;;12.43;52.11
16120;BME280;12670;53.502;10.252;2023-03-11T12:05:51;100400.47;;;12.32;50.46
16120;BME280;12670;53.502;10.252;2023-03-11T12:09:05;100411.50;;;11.39;50.76
16120;BME280;12670;53.502;10.252;2023-03-11T12:12:20;100399.06;;;11.57;50.87
16120;BME280;12670;53.502;10.252;2023-03-11T12:15:28;100395.91;;;11.14;56.93
16120;BME280;12670;53.502;10.252;2023-03-11T12:18:35;100399.84;;;11.93;54.20
16120;BME280;12670;53.502;10.252;2023-03-11T12:21:59;100395.63;;;11.20;54.52
16120;BME280;12670;53.502;10.252;2023-03-11T12:25:17;100394.22;;;10.94;53.84
16120;BME280;12670;53.502;10.252;2023-03-11T12:28:27;100386.31;;;10.75;55.26
16120;BME280;12670;53.502;10.252;2023-03-11T12:31:39;100398.72;;;9.98;54.94
16120;BME280;12670;53.502;10.252;2023-03-11T12:34:42;100387.69;;;9.05;57.53
16120;BME280;12670;53.502;10.252;2023-03-11T12:37:46;100387.50;;;9.52;59.02
16120;BME280;12670;53.502;10.252;2023-03-11T12:41:03;100381.22;;;9.94;58.48
16120;BME280;12670;53.502;10.252;2023-03-11T12:44:22;100384.81;;;9.31;54.19
16120;BME280;12670;53.502;10.252;2023-03-11T12:47:26;100387.16;;;9.80;54.72
16120;BME280;12670;53.502;10.252;2023-03-11T12:50:38;100388.94;;;9.59;53.09
16120;BME280;12670;53.502;10.252;2023-03-11T12:53:43;100388.66;;;9.24;54.01
16120;BME280;12670;53.502;10.252;2023-03-11T12:56:50;100394.53;;;8.89;55.14
16120;BME280;12670;53.502;10.252;2023-03-11T13:00:26;100391.28;;;8.82;58.33
16120;BME280;12670;53.502;10.252;2023-03-11T13:03:55;100401.19;;;8.99;59.61
16120;BME280;12670;53.502;10.252;2023-03-11T13:07:17;100397.66;;;8.76;65.88
16120;BME280;12670;53.502;10.252;2023-03-11T13:10:37;100396.81;;;8.98;65.37
16120;BME280;12670;53.502;10.252;2023-03-11T13:13:41;100402.09;;;10.40;60.32
16120;BME280;12670;53.502;10.252;2023-03-11T13:16:44;100409.91;;;9.84;57.93
16120;BME280;12670;53.502;10.252;2023-03-11T13:19:51;100396.69;;;8.57;61.48
16120;BME280;12670;53.502;10.252;2023-03-11T13:23:22;100401.28;;;8.52;65.47
16120;BME280;12670;53.502;10.252;2023-03-11T13:26:33;100416.16;;;7.83;66.29
16120;BME280;12670;53.502;10.252;2023-03-11T13:29:50;100409.94;;;7.84;66.99
16120;BME280;12670;53.502;10.252;2023-03-11T13:33:15;100417.50;;;7.69;66.94
16120;BME280;12670;53.502;10.252;2023-03-11T13:36:35;100409.06;;;6.80;70.21
16120;BME280;12670;53.502;10.252;2023-03-11T13:39:54;100401.09;;;6.82;71.02
16120;BME280;12670;53.502;10.252;2023-03-11T13:43:02;100407.13;;;6.57;71.99
16120;BME280;12670;53.502;10.252;2023-03-11T13:46:11;100416.47;;;7.98;69.82
16120;BME280;12670;53.502;10.252;2023-03-11T13:49:24;100412.97;;;7.98;66.64
16120;BME280;12670;53.502;10.252;2023-03-11T13:52:31;100404.50;;;8.82;64.22
16120;BME280;12670;53.502;10.252;2023-03-11T13:55:38;100408.22;;;9.20;64.30
16120;BME280;12670;53.502;10.252;2023-03-11T13:58:42;100410.44;;;8.18;65.88
16120;BME280;12670;53.502;10.252;2023-03-11T14:01:49;100415.28;;;8.99;67.71
16120;BME280;12670;53.502;10.252;2023-03-11T14:04:55;100406.59;;;8.74;66.01
16120;BME280;12670;53.502;10.252;2023-03-11T14:08:12;100414.59;;;8.49;64.07
16120;BME280;12670;53.502;10.252;2023-03-11T14:11:25;100425.34;;;7.96;67.92
16120;BME280;12670;53.502;10.252;2023-03-11T14:14:35;100421.88;;;7.44;67.28
16120;BME280;12670;53.502;10.252;2023-03-11T14:17:42;100419.66;;;7.32;71.87
16120;BME280;12670;53.502;10.252;2023-03-11T14:20:47;100419.47;;;7.11;70.82
16120;BME280;12670;53.502;10.252;2023-03-11T14:23:53;100420.75;;;6.42;72.53
16120;BME280;12670;53.502;10.252;2023-03-11T14:26:59;100413.25;;;6.86;73.98
16120;BME280;12670;53.502;10.252;2023-03-11T14:30:04;100424.97;;;7.05;73.88
16120;BME280;12670;53.502;10.252;2023-03-11T14:33:20;100418.81;;;6.77;72.11
16120;BME280;12670;53.502;10.252;2023-03-11T14:36:23;100416.97;;;6.80;72.41
16120;BME280;12670;53.502;10.252;2023-03-11T14:39:29;100418.63;;;6.83;73.54
16120;BME280;12670;53.502;10.252;2023-03-11T14:42:35;100421.47;;;7.03;74.25
16120;BME280;12670;53.502;10.252;2023-03-11T14:45:39;100422.53;;;6.99;72.50
16120;BME280;12670;53.502;10.252;2023-03-11T14:48:43;100424.03;;;7.33;71.75
16120;BME280;12670;53.502;10.252;2023-03-11T14:51:49;100428.91;;;7.45;71.68
16120;BME280;12670;53.502;10.252;2023-03-11T14:54:56;100418.00;;;7.29;69.97
16120;BME280;12670;53.502;10.252;2023-03-11T14:58:01;100429.31;;;7.59;68.62
16120;BME280;12670;53.502;10.252;2023-03-11T15:01:09;100433.00;;;7.79;67.10
16120;BME280;12670;53.502;10.252;2023-03-11T15:04:15;100423.84;;;7.39;66.42
16120;BME280;12670;53.502;10.252;2023-03-11T15:07:24;100426.34;;;7.68;67.15
16120;BME280;12670;53.502;10.252;2023-03-11T15:10:28;100424.81;;;7.36;65.48
16120;BME280;12670;53.502;10.252;2023-03-11T15:13:31;100428.06;;;7.18;67.44
16120;BME280;12670;53.502;10.252;2023-03-11T15:16:35;100424.97;;;7.05;69.27
16120;BME280;12670;53.502;10.252;2023-03-11T15:19:38;100430.31;;;7.02;70.03
16120;BME280;12670;53.502;10.252;2023-03-11T15:22:41;100429.28;;;6.52;70.78
16120;BME280;12670;53.502;10.252;2023-03-11T15:25:47;100422.84;;;6.60;73.18
16120;BME280;12670;53.502;10.252;2023-03-11T15:28:56;100435.72;;;6.41;71.79
16120;BME280;12670;53.502;10.252;2023-03-11T15:32:00;100432.53;;;5.99;72.59
16120;BME280;12670;53.502;10.252;2023-03-11T15:35:23;100431.63;;;6.00;73.55
16120;BME280;12670;53.502;10.252;2023-03-11T15:38:27;100437.53;;;6.08;73.25
16120;BME280;12670;53.502;10.252;2023-03-11T15:41:30;100440.97;;;6.12;70.58
16120;BME280;12670;53.502;10.252;2023-03-11T15:44:35;100430.66;;;6.03;71.04
16120;BME280;12670;53.502;10.252;2023-03-11T15:47:41;100427.47;;;5.92;73.47
16120;BME280;12670;53.502;10.252;2023-03-11T15:50:46;100420.84;;;5.77;72.77
16120;BME280;12670;53.502;10.252;2023-03-11T15:53:53;100417.38;;;6.07;72.26
16120;BME280;12670;53.502;10.252;2023-03-11T15:56:58;100409.84;;;5.95;71.67
16120;BME280;12670;53.502;10.252;2023-03-11T16:00:02;100414.00;;;6.02;71.34
16120;BME280;12670;53.502;10.252;2023-03-11T16:03:05;100420.03;;;5.75;71.71
16120;BME280;12670;53.502;10.252;2023-03-11T16:06:08;100425.44;;;5.69;72.73
16120;BME280;12670;53.502;10.252;2023-03-11T16:09:11;100435.63;;;5.48;74.49
16120;BME280;12670;53.502;10.252;2023-03-11T16:12:18;100439.94;;;5.51;75.59
16120;BME280;12670;53.502;10.252;2023-03-11T16:15:23;100443.03;;;5.34;75.89